createdAt,value
2019-02-25T00:00:12.389Z,102617.25
2019-02-25T00:02:41.581Z,102613.06
2019-02-25T00:05:10.705Z,102609.48
2019-02-25T00:07:39.879Z,102605.70
2019-02-25T00:10:09.401Z,102601.91
2019-02-25T00:12:38.548Z,102597.98
2019-02-25T00:15:07.718Z,102593.07
2019-02-25T00:17:38.319Z,102587.97
2019-02-25T00:20:09.800Z,102585.67
2019-02-25T00:22:38.968Z,102572.55
2019-02-25T00:25:08.718Z,102577.77
2019-02-25T00:27:37.883Z,102576.06
2019-02-25T00:30:07.100Z,102575.16
2019-02-25T00:32:36.498Z,102577.68
2019-02-25T00:35:05.738Z,102575.87
2019-02-25T00:37:34.846Z,102577.00
2019-02-25T00:40:04.620Z,102577.13
2019-02-25T00:42:33.757Z,102585.28
2019-02-25T00:45:02.880Z,102583.79
2019-02-25T00:47:32.002Z,102583.79
2019-02-25T00:50:01.164Z,102579.35
2019-02-25T00:52:30.273Z,102579.35
2019-02-25T00:54:59.402Z,102591.42
2019-02-25T00:57:28.558Z,102589.64
2019-02-25T00:59:57.689Z,102590.76
2019-02-25T01:02:26.807Z,102595.08
2019-02-25T01:04:55.954Z,102596.23
2019-02-25T01:07:25.115Z,102598.75
2019-02-25T01:09:54.261Z,102596.05
2019-02-25T01:12:23.381Z,102585.69
2019-02-25T01:14:52.526Z,102580.68
2019-02-25T01:17:21.701Z,102581.30
2019-02-25T01:19:50.851Z,102575.05
2019-02-25T01:22:20.002Z,102572.05
2019-02-25T01:24:49.181Z,102577.27
2019-02-25T01:27:18.324Z,102580.69
2019-02-25T01:29:47.438Z,102568.84
2019-02-25T01:32:16.560Z,102571.67
2019-02-25T01:34:45.708Z,102568.86
2019-02-25T01:37:14.837Z,102564.86
2019-02-25T01:39:44.011Z,102570.08
2019-02-25T01:42:13.166Z,102566.50
2019-02-25T01:44:42.306Z,102558.88
2019-02-25T01:47:11.443Z,102558.19
2019-02-25T01:49:40.588Z,102561.01
2019-02-25T01:52:12.192Z,102560.91
2019-02-25T01:54:41.368Z,102547.08
2019-02-25T01:57:10.474Z,102537.99
2019-02-25T01:59:39.643Z,102544.52
2019-02-25T02:02:08.742Z,102543.52
2019-02-25T02:04:37.893Z,102543.52
2019-02-25T02:07:07.153Z,102537.30
2019-02-25T02:09:36.267Z,102530.58
2019-02-25T02:12:05.453Z,102533.09
2019-02-25T02:14:34.579Z,102536.91
2019-02-25T02:17:03.736Z,102540.37
2019-02-25T02:19:32.879Z,102540.37
2019-02-25T02:22:02.016Z,102543.38
2019-02-25T02:24:31.165Z,102536.47
2019-02-25T02:27:00.315Z,102537.67
2019-02-25T02:29:29.444Z,102538.87
2019-02-25T02:31:58.592Z,102550.81
2019-02-25T02:34:27.713Z,102548.51
2019-02-25T02:36:56.840Z,102544.94
2019-02-25T02:39:25.985Z,102550.35
2019-02-25T02:42:26.121Z,102560.08
2019-02-25T02:45:15.582Z,102571.71
2019-02-25T02:47:49.078Z,102560.88
2019-02-25T02:50:20.933Z,102567.20
2019-02-25T02:52:50.037Z,102564.49
2019-02-25T02:55:19.354Z,102559.28
2019-02-25T02:57:48.495Z,102554.86
2019-02-25T03:00:18.870Z,102552.66
2019-02-25T03:02:47.995Z,102552.66
2019-02-25T03:05:18.461Z,102555.47
2019-02-25T03:07:47.574Z,102561.98
2019-02-25T03:10:18.265Z,102555.80
2019-02-25T03:12:47.590Z,102551.69
2019-02-25T03:15:18.489Z,102553.30
2019-02-25T03:17:47.647Z,102554.09
2019-02-25T03:20:16.859Z,102552.80
2019-02-25T03:22:45.991Z,102559.20
2019-02-25T03:25:16.349Z,102560.01
2019-02-25T03:27:45.588Z,102554.30
2019-02-25T03:30:19.442Z,102550.69
2019-02-25T03:32:48.577Z,102555.19
2019-02-25T03:35:17.771Z,102412.50
2019-02-25T03:37:46.937Z,102553.22
2019-02-25T03:40:17.654Z,102559.80
2019-02-25T03:42:47.826Z,102569.32
2019-02-25T03:45:17.798Z,102563.53
2019-02-25T03:47:46.936Z,102555.11
2019-02-25T03:50:16.073Z,102565.94
2019-02-25T03:52:45.186Z,102565.83
2019-02-25T03:55:16.141Z,102570.55
2019-02-25T03:57:45.270Z,102572.44
2019-02-25T04:00:17.095Z,102577.15
2019-02-25T04:02:46.268Z,102581.05
2019-02-25T04:05:15.441Z,102579.34
2019-02-25T04:07:44.610Z,102578.16
2019-02-25T04:10:14.040Z,102577.95
2019-02-25T04:12:43.179Z,102577.05
2019-02-25T04:15:15.082Z,102566.53
2019-02-25T04:17:44.232Z,102567.03
2019-02-25T04:20:14.381Z,102567.03
2019-02-25T04:22:43.534Z,102569.73
2019-02-25T04:25:12.622Z,102567.33
2019-02-25T04:27:43.893Z,102568.92
2019-02-25T04:30:14.527Z,102572.83
2019-02-25T04:32:43.685Z,102569.22
2019-02-25T04:35:12.970Z,102577.83
2019-02-25T04:37:42.194Z,102582.83
2019-02-25T04:40:12.331Z,102592.65
2019-02-25T04:42:41.504Z,102589.11
2019-02-25T04:45:13.125Z,102583.91
2019-02-25T04:47:42.259Z,102584.30
2019-02-25T04:50:12.007Z,102587.02
2019-02-25T04:52:41.128Z,102582.61
2019-02-25T04:55:10.678Z,102576.09
2019-02-25T04:57:39.869Z,102577.40
2019-02-25T05:00:31.428Z,102580.00
2019-02-25T05:03:00.558Z,102572.19
2019-02-25T05:05:29.725Z,102577.40
2019-02-25T05:07:58.896Z,102582.11
2019-02-25T05:10:28.140Z,102582.61
2019-02-25T05:13:04.711Z,102591.11
2019-02-25T05:18:24.193Z,102581.89
2019-02-25T05:20:53.334Z,102581.09
2019-02-25T05:23:22.495Z,102583.19
2019-02-25T05:25:51.626Z,102582.62
2019-02-25T05:28:20.771Z,102579.41
2019-02-25T05:30:49.907Z,102581.00
2019-02-25T05:33:19.072Z,102576.48
2019-02-25T05:35:48.182Z,102582.48
2019-02-25T05:38:17.346Z,102591.48
2019-02-25T05:40:46.464Z,102593.98
2019-02-25T05:43:15.620Z,102593.08
2019-02-25T05:45:44.755Z,102596.98
2019-02-25T05:48:13.911Z,102594.77
2019-02-25T05:50:43.041Z,102598.97
2019-02-25T05:53:12.158Z,102592.64
2019-02-25T05:55:41.311Z,102583.43
2019-02-25T05:58:10.460Z,102584.27
2019-02-25T06:00:39.663Z,102582.95
2019-02-25T06:03:08.794Z,102584.16
2019-02-25T06:05:37.964Z,102579.34
2019-02-25T06:08:07.111Z,102583.54
2019-02-25T06:10:36.262Z,102576.53
2019-02-25T06:13:05.423Z,102576.92
2019-02-25T06:15:34.590Z,102576.42
2019-02-25T06:18:03.746Z,102579.81
2019-02-25T06:20:32.883Z,102584.80
2019-02-25T06:23:02.034Z,102575.09
2019-02-25T06:25:31.203Z,102569.73
2019-02-25T06:28:00.318Z,102577.42
2019-02-25T06:30:29.464Z,102584.16
2019-02-25T06:32:58.651Z,102583.97
2019-02-25T06:35:27.796Z,102579.27
2019-02-25T06:37:56.966Z,102586.47
2019-02-25T06:40:26.107Z,102577.80
2019-02-25T06:42:55.235Z,102583.65
2019-02-25T06:45:24.418Z,102589.47
2019-02-25T06:47:53.617Z,102589.09
2019-02-25T06:50:22.775Z,102578.63
2019-02-25T06:52:51.953Z,102583.45
2019-02-25T06:55:21.143Z,102592.87
2019-02-25T06:57:50.323Z,102594.09
2019-02-25T07:00:19.925Z,102583.70
2019-02-25T07:02:49.017Z,102590.58
2019-02-25T07:05:49.229Z,102592.70
2019-02-25T07:08:23.182Z,102589.32
2019-02-25T07:11:12.716Z,102588.25
2019-02-25T07:14:06.731Z,102584.59
2019-02-25T07:16:53.372Z,102595.71
2019-02-25T07:19:53.537Z,102588.27
2019-02-25T07:22:37.912Z,102589.33
2019-02-25T07:25:20.428Z,102595.79
2019-02-25T07:28:11.588Z,102593.47
2019-02-25T07:31:11.914Z,102593.97
2019-02-25T07:33:56.730Z,102598.97
2019-02-25T07:36:44.849Z,102596.60
2019-02-25T07:39:28.004Z,102595.46
2019-02-25T07:42:16.114Z,102596.06
2019-02-25T07:44:50.101Z,102597.47
2019-02-25T07:47:38.598Z,102604.78
2019-02-25T07:50:26.824Z,102607.31
2019-02-25T07:53:12.747Z,102609.61
2019-02-25T07:56:02.532Z,102617.33
2019-02-25T07:58:48.113Z,102605.50
2019-02-25T08:01:42.177Z,102606.88
2019-02-25T08:04:26.745Z,102619.76
2019-02-25T08:07:13.292Z,102617.09
2019-02-25T08:09:59.419Z,102612.01
2019-02-25T08:12:53.601Z,102613.58
2019-02-25T08:15:34.127Z,102615.57
2019-02-25T08:18:11.150Z,102610.08
2019-02-25T08:21:08.074Z,102605.17
2019-02-25T08:23:54.097Z,102596.31
2019-02-25T08:26:41.505Z,102597.89
2019-02-25T08:29:23.920Z,102598.19
2019-02-25T08:32:04.764Z,102596.53
2019-02-25T08:34:51.326Z,102599.08
2019-02-25T08:37:37.532Z,102603.66
2019-02-25T08:40:34.788Z,102601.58
2019-02-25T08:43:18.757Z,102603.33
2019-02-25T08:45:56.404Z,102597.17
2019-02-25T08:48:31.136Z,102605.27
2019-02-25T08:50:59.286Z,102599.05
2019-02-25T08:53:29.879Z,102602.61
2019-02-25T08:55:59.089Z,102608.99
2019-02-25T08:58:28.204Z,102600.50
2019-02-25T09:00:57.357Z,102602.27
2019-02-25T09:03:26.509Z,102593.29
2019-02-25T09:05:55.659Z,102591.52
2019-02-25T09:08:24.817Z,102596.89
2019-02-25T09:10:54.022Z,102606.81
2019-02-25T09:13:23.849Z,102598.28
2019-02-25T09:15:53.210Z,102598.75
2019-02-25T09:18:22.383Z,102599.75
2019-02-25T09:20:51.525Z,102591.88
2019-02-25T09:23:20.684Z,102605.40
2019-02-25T09:25:49.849Z,102604.33
2019-02-25T09:28:19.003Z,102605.16
2019-02-25T09:30:48.144Z,102599.58
2019-02-25T09:33:17.315Z,102597.12
2019-02-25T09:35:46.492Z,102599.04
2019-02-25T09:38:15.626Z,102594.50
2019-02-25T09:40:44.829Z,102590.03
2019-02-25T09:43:13.986Z,102594.37
2019-02-25T09:45:43.122Z,102596.63
2019-02-25T09:48:12.257Z,102598.22
2019-02-25T09:50:41.394Z,102600.69
2019-02-25T09:53:10.575Z,102599.91
2019-02-25T09:55:39.758Z,102600.34
2019-02-25T09:58:11.457Z,102608.54
2019-02-25T10:00:40.685Z,102608.69
2019-02-25T10:03:09.911Z,102595.34
2019-02-25T10:05:39.182Z,102594.80
2019-02-25T10:08:08.763Z,102594.01
2019-02-25T10:10:37.891Z,102587.86
2019-02-25T10:13:07.065Z,102587.47
2019-02-25T10:15:36.215Z,102584.75
2019-02-25T10:18:05.349Z,102587.75
2019-02-25T10:20:34.485Z,102591.82
2019-02-25T10:23:06.469Z,102590.66
2019-02-25T10:25:35.657Z,102594.27
2019-02-25T10:28:04.787Z,102597.43
2019-02-25T10:30:33.953Z,102595.02
2019-02-25T10:33:03.107Z,102590.22
2019-02-25T10:35:32.323Z,102589.30
2019-02-25T10:38:03.118Z,102591.64
2019-02-25T10:40:32.376Z,102594.81
2019-02-25T10:43:01.550Z,102586.69
2019-02-25T10:45:30.690Z,102587.50
2019-02-25T10:47:59.848Z,102579.02
2019-02-25T10:50:31.147Z,102572.35
2019-02-25T10:53:03.460Z,102576.22
2019-02-25T10:55:36.901Z,102567.83
2019-02-25T10:58:06.598Z,102564.69
2019-02-25T11:00:37.795Z,102564.86
2019-02-25T11:03:06.707Z,102559.53
2019-02-25T11:05:35.858Z,102557.28
2019-02-25T11:08:09.530Z,102552.82
2019-02-25T11:10:41.495Z,102548.09
2019-02-25T11:13:10.621Z,102541.66
2019-02-25T11:15:42.415Z,102539.41
2019-02-25T11:18:12.233Z,102537.17
2019-02-25T11:20:41.527Z,102532.31
2019-02-25T11:23:12.819Z,102536.19
2019-02-25T11:25:41.711Z,102526.09
2019-02-25T11:28:22.624Z,102529.81
2019-02-25T11:30:43.169Z,102521.33
2019-02-25T11:33:12.637Z,102517.31
2019-02-25T11:35:43.315Z,102516.35
2019-02-25T11:38:13.007Z,102516.73
2019-02-25T11:40:42.176Z,102517.24
2019-02-25T11:43:13.252Z,102503.39
2019-02-25T11:45:42.243Z,102494.98
2019-02-25T11:48:11.422Z,102491.07
2019-02-25T11:50:40.692Z,102488.39
2019-02-25T11:53:09.835Z,102487.84
2019-02-25T11:55:38.973Z,102479.31
2019-02-25T11:58:08.122Z,102477.41
2019-02-25T12:00:37.263Z,102479.25
2019-02-25T12:03:06.495Z,102460.94
2019-02-25T12:05:35.692Z,102460.86
2019-02-25T12:08:04.852Z,102455.17
2019-02-25T12:10:34.040Z,102449.42
2019-02-25T12:13:03.176Z,102444.47
2019-02-25T12:15:32.312Z,102445.80
2019-02-25T12:18:01.464Z,102435.81
2019-02-25T12:20:30.575Z,102434.80
2019-02-25T12:22:59.758Z,102427.13
2019-02-25T12:25:28.894Z,102415.97
2019-02-25T12:27:58.024Z,102405.35
2019-02-25T12:30:30.250Z,102414.74
2019-02-25T12:32:59.421Z,102416.13
2019-02-25T12:35:28.594Z,102402.70
2019-02-25T12:37:57.773Z,102401.23
2019-02-25T12:40:26.929Z,102399.41
2019-02-25T12:42:56.208Z,102386.58
2019-02-25T12:45:25.771Z,102379.95
2019-02-25T12:47:54.978Z,102371.47
2019-02-25T12:50:24.143Z,102373.19
2019-02-25T12:52:53.317Z,102374.09
2019-02-25T12:55:22.589Z,102370.11
2019-02-25T12:57:51.758Z,102370.09
2019-02-25T13:00:20.906Z,102370.93
2019-02-25T13:02:50.049Z,102361.11
2019-02-25T13:05:19.223Z,102358.41
2019-02-25T13:07:48.450Z,102357.91
2019-02-25T13:10:17.834Z,102357.44
2019-02-25T13:12:47.084Z,102358.72
2019-02-25T13:15:16.223Z,102367.05
2019-02-25T13:17:45.378Z,102366.03
2019-02-25T13:20:14.668Z,102362.94
2019-02-25T13:22:43.925Z,102357.77
2019-02-25T13:25:13.354Z,102358.66
2019-02-25T13:27:42.515Z,102356.75
2019-02-25T13:30:14.341Z,102362.51
2019-02-25T13:32:43.562Z,102353.98
2019-02-25T13:35:13.157Z,102346.84
2019-02-25T13:37:42.304Z,102338.35
2019-02-25T13:40:11.697Z,102336.94
2019-02-25T13:42:40.843Z,102330.55
2019-02-25T13:45:11.195Z,102342.16
2019-02-25T13:47:40.369Z,102338.13
2019-02-25T13:50:11.118Z,102343.91
2019-02-25T13:52:47.968Z,102342.52
2019-02-25T13:55:11.302Z,102345.56
2019-02-25T13:57:40.461Z,102342.88
2019-02-25T14:00:17.420Z,102345.55
2019-02-25T14:02:46.755Z,102341.97
2019-02-25T14:05:16.023Z,102351.37
2019-02-25T14:07:45.347Z,102345.56
2019-02-25T14:10:14.531Z,102346.38
2019-02-25T14:12:43.672Z,102346.91
2019-02-25T14:15:14.727Z,102347.30
2019-02-25T14:17:44.067Z,102343.69
2019-02-25T14:20:15.489Z,102344.16
2019-02-25T14:22:44.677Z,102337.91
2019-02-25T14:25:15.009Z,102338.73
2019-02-25T14:27:45.485Z,102338.39
2019-02-25T14:30:17.626Z,102342.05
2019-02-25T14:32:46.823Z,102342.58
2019-02-25T14:35:16.623Z,102341.80
2019-02-25T14:37:45.918Z,102335.59
2019-02-25T14:40:17.137Z,102334.29
2019-02-25T14:42:48.827Z,102332.97
2019-02-25T14:45:21.612Z,102326.71
2019-02-25T14:47:49.724Z,102325.86
2019-02-25T14:50:20.550Z,102329.88
2019-02-25T14:52:50.078Z,102327.66
2019-02-25T14:55:19.184Z,102333.92
2019-02-25T14:57:48.462Z,102332.69
2019-02-25T15:00:26.177Z,102339.48
2019-02-25T15:02:55.104Z,102344.49
2019-02-25T15:05:25.587Z,102349.52
2019-02-25T15:07:54.773Z,102350.48
2019-02-25T15:10:29.253Z,102338.56
2019-02-25T15:12:59.079Z,102348.92
2019-02-25T15:15:28.585Z,102349.50
2019-02-25T15:17:57.956Z,102336.17
2019-02-25T15:20:30.038Z,102332.23
2019-02-25T15:22:59.233Z,102328.27
2019-02-25T15:25:31.161Z,102330.61
2019-02-25T15:27:59.241Z,102332.00
2019-02-25T15:30:30.687Z,102330.25
2019-02-25T15:33:00.409Z,102333.44
2019-02-25T15:35:32.332Z,102332.59
2019-02-25T15:38:00.815Z,102329.52
2019-02-25T15:40:29.980Z,102326.83
2019-02-25T15:43:04.107Z,102325.13
2019-02-25T15:45:36.104Z,102320.25
2019-02-25T15:48:08.273Z,102322.13
2019-02-25T15:50:37.624Z,102322.19
2019-02-25T15:53:07.450Z,102318.72
2019-02-25T15:55:38.810Z,102320.59
2019-02-25T15:58:08.768Z,102315.31
2019-02-25T16:00:38.730Z,102313.11
2019-02-25T16:03:09.076Z,102318.02
2019-02-25T16:05:42.045Z,102312.72
2019-02-25T16:08:16.231Z,102315.42
2019-02-25T16:10:43.089Z,102309.66
2019-02-25T16:13:14.265Z,102317.21
2019-02-25T16:15:43.302Z,102322.11
2019-02-25T16:18:14.307Z,102320.73
2019-02-25T16:20:46.116Z,102317.61
2019-02-25T16:23:14.345Z,102322.44
2019-02-25T16:25:45.603Z,102318.83
2019-02-25T16:28:17.301Z,102324.56
2019-02-25T16:30:46.889Z,102321.42
2019-02-25T16:33:16.708Z,102319.98
2019-02-25T16:35:46.277Z,102318.13
2019-02-25T16:38:15.670Z,102323.39
2019-02-25T16:40:44.839Z,102323.30
2019-02-25T16:43:14.246Z,102323.27
2019-02-25T16:45:45.251Z,102326.72
2019-02-25T16:48:14.413Z,102321.70
2019-02-25T16:50:46.130Z,102328.23
2019-02-25T16:53:15.478Z,102327.21
2019-02-25T16:55:47.057Z,102331.02
2019-02-25T16:58:16.410Z,102329.49
2019-02-25T17:00:45.640Z,102332.03
2019-02-25T17:03:16.103Z,102339.86
2019-02-25T17:05:47.795Z,102334.02
2019-02-25T17:08:19.386Z,102335.67
2019-02-25T17:10:51.235Z,102340.48
2019-02-25T17:13:20.281Z,102332.34
2019-02-25T17:15:49.383Z,102337.09
2019-02-25T17:18:18.543Z,102339.56
2019-02-25T17:20:49.870Z,102337.20
2019-02-25T17:23:18.630Z,102340.58
2019-02-25T17:25:47.806Z,102343.48
2019-02-25T17:28:19.000Z,102348.16
2019-02-25T17:30:49.645Z,102344.52
2019-02-25T17:33:19.125Z,102345.30
2019-02-25T17:35:49.960Z,102347.81
2019-02-25T17:38:20.921Z,102354.80
2019-02-25T17:40:50.362Z,102360.81
2019-02-25T17:43:20.213Z,102356.25
2019-02-25T17:45:49.650Z,102361.44
2019-02-25T17:48:21.243Z,102366.55
2019-02-25T17:50:50.148Z,102363.38
2019-02-25T17:53:19.303Z,102358.87
2019-02-25T17:55:48.959Z,102359.64
2019-02-25T17:58:20.320Z,102363.88
2019-02-25T18:00:50.456Z,102359.64
2019-02-25T18:03:20.351Z,102360.27
2019-02-25T18:05:50.737Z,102365.31
2019-02-25T18:08:20.055Z,102362.78
2019-02-25T18:10:50.078Z,102367.89
2019-02-25T18:13:21.944Z,102372.17
2019-02-25T18:15:52.024Z,102374.12
2019-02-25T18:18:24.408Z,102369.54
2019-02-25T18:20:53.711Z,102373.35
2019-02-25T18:23:23.068Z,102373.63
2019-02-25T18:25:53.636Z,102373.55
2019-02-25T18:28:23.249Z,102373.38
2019-02-25T18:30:52.805Z,102374.46
2019-02-25T18:33:23.114Z,102379.08
2019-02-25T18:35:53.147Z,102379.67
2019-02-25T18:38:23.295Z,102371.99
2019-02-25T18:40:53.418Z,102368.63
2019-02-25T18:43:24.305Z,102374.62
2019-02-25T18:45:56.121Z,102375.17
2019-02-25T18:48:27.359Z,102376.27
2019-02-25T18:50:58.935Z,102380.38
2019-02-25T18:53:27.886Z,102379.25
2019-02-25T18:55:57.470Z,102378.13
2019-02-25T18:58:26.675Z,102386.29
2019-02-25T19:00:57.189Z,102379.11
2019-02-25T19:03:26.991Z,102374.62
2019-02-25T19:05:58.009Z,102380.19
2019-02-25T19:08:29.131Z,102379.95
2019-02-25T19:10:58.659Z,102381.91
2019-02-25T19:13:29.826Z,102386.09
2019-02-25T19:15:59.836Z,102385.91
2019-02-25T19:18:32.232Z,102391.02
2019-02-25T19:21:02.075Z,102384.59
2019-02-25T19:23:34.977Z,102390.98
2019-02-25T19:26:03.052Z,102387.75
2019-02-25T19:28:32.230Z,102385.43
2019-02-25T19:31:03.574Z,102393.61
2019-02-25T19:33:36.336Z,102396.09
2019-02-25T19:36:04.851Z,102387.80
2019-02-25T19:38:36.370Z,102385.66
2019-02-25T19:41:06.074Z,102377.91
2019-02-25T19:43:35.378Z,102382.70
2019-02-25T19:46:06.326Z,102382.59
2019-02-25T19:48:35.779Z,102377.98
2019-02-25T19:51:06.263Z,102378.72
2019-02-25T19:53:36.692Z,102368.48
2019-02-25T19:56:06.644Z,102375.38
2019-02-25T19:58:36.512Z,102375.16
2019-02-25T20:01:08.978Z,102371.08
2019-02-25T20:03:39.912Z,102367.38
2019-02-25T20:06:13.876Z,102367.20
2019-02-25T20:08:40.017Z,102373.63
2019-02-25T20:11:09.735Z,102368.11
2019-02-25T20:13:40.547Z,102368.32
2019-02-25T20:16:13.415Z,102374.25
2019-02-25T20:18:41.980Z,102369.23
2019-02-25T20:21:11.298Z,102367.30
2019-02-25T20:23:40.579Z,102360.91
2019-02-25T20:26:13.312Z,102358.52
2019-02-25T20:28:41.750Z,102355.32
2019-02-25T20:31:12.737Z,102352.87
2019-02-25T20:33:43.190Z,102347.73
2019-02-25T20:36:12.361Z,102347.88
2019-02-25T20:38:41.552Z,102352.48
2019-02-25T20:41:10.957Z,102354.09
2019-02-25T20:43:40.209Z,102355.77
2019-02-25T20:46:09.425Z,102352.53
2019-02-25T20:48:38.816Z,102357.23
2019-02-25T20:51:10.207Z,102360.51
2019-02-25T20:53:39.047Z,102365.58
2019-02-25T20:56:10.984Z,102358.75
2019-02-25T20:58:42.509Z,102365.66
2019-02-25T21:01:12.082Z,102364.63
2019-02-25T21:03:45.807Z,102363.61
2019-02-25T21:06:14.517Z,102357.61
2019-02-25T21:08:44.502Z,102362.65
2019-02-25T21:11:15.611Z,102365.50
2019-02-25T21:13:45.027Z,102365.85
2019-02-25T21:16:16.179Z,102358.19
2019-02-25T21:18:46.582Z,102358.54
2019-02-25T21:21:16.297Z,102352.80
2019-02-25T21:23:45.643Z,102356.23
2019-02-25T21:26:14.776Z,102361.42
2019-02-25T21:28:44.053Z,102361.03
2019-02-25T21:31:14.561Z,102364.82
2019-02-25T21:33:47.322Z,102369.26
2019-02-25T21:36:15.111Z,102367.70
2019-02-25T21:38:45.377Z,102376.28
2019-02-25T21:41:17.127Z,102378.77
2019-02-25T21:43:47.236Z,102379.66
2019-02-25T21:46:19.780Z,102376.14
2019-02-25T21:48:48.600Z,102373.80
2019-02-25T21:51:18.780Z,102374.20
2019-02-25T21:53:47.948Z,102364.95
2019-02-25T21:56:18.899Z,102363.08
2019-02-25T21:58:48.705Z,102365.57
2019-02-25T22:01:18.886Z,102360.08
2019-02-25T22:03:50.209Z,102356.83
2019-02-25T22:06:22.018Z,102363.25
2019-02-25T22:08:52.130Z,102360.84
2019-02-25T22:11:22.152Z,102357.20
2019-02-25T22:13:51.361Z,102352.71
2019-02-25T22:16:21.861Z,102353.06
2019-02-25T22:18:52.137Z,102357.68
2019-02-25T22:21:22.460Z,102357.66
2019-02-25T22:23:54.020Z,102361.55
2019-02-25T22:26:25.184Z,102363.29
2019-02-25T22:28:55.281Z,102370.83
2019-02-25T22:31:24.335Z,102380.53
2019-02-25T22:33:53.511Z,102380.95
2019-02-25T22:36:22.667Z,102380.47
2019-02-25T22:38:51.909Z,102384.39
2019-02-25T22:41:22.809Z,102382.67
2019-02-25T22:43:51.933Z,102378.66
2019-02-25T22:46:21.115Z,102376.04
2019-02-25T22:48:50.257Z,102372.11
2019-02-25T22:51:21.898Z,102355.89
2019-02-25T22:53:50.265Z,102355.89
2019-02-25T22:56:21.471Z,102340.16
2019-02-25T22:58:50.309Z,102333.19
2019-02-25T23:01:19.542Z,102332.30
2019-02-25T23:03:52.164Z,102331.63
2019-02-25T23:06:21.352Z,102330.58
2019-02-25T23:08:51.128Z,102328.14
2019-02-25T23:11:23.880Z,102315.72
2019-02-25T23:13:54.847Z,102318.67
2019-02-25T23:16:25.472Z,102321.86
2019-02-25T23:18:54.565Z,102326.58
2019-02-25T23:21:26.334Z,102328.39
2019-02-25T23:23:55.859Z,102323.11
2019-02-25T23:26:25.478Z,102330.05
2019-02-25T23:28:56.000Z,102331.45
2019-02-25T23:31:25.497Z,102336.27
2019-02-25T23:33:54.643Z,102333.89
2019-02-25T23:36:24.780Z,102331.84
2019-02-25T23:38:55.360Z,102332.82
2019-02-25T23:41:25.519Z,102337.73
2019-02-25T23:43:54.639Z,102331.34
2019-02-25T23:46:27.322Z,102335.75
2019-02-25T23:48:54.645Z,102335.34
2019-02-25T23:51:23.813Z,102332.23
2019-02-25T23:53:53.710Z,102327.74
2019-02-25T23:56:25.603Z,102324.07
2019-02-25T23:58:54.664Z,102320.73
